This is the latest recevied weather packets stored in our database for station/object KG7MRB. If no packets are shown the sender has not sent any weather packets the latest 10 day(s).
| Time | Temp. | Humidity | Pressure | Rain* | Wind** | Luminosity | Snow |
|---|---|---|---|---|---|---|---|
| 1777856418 | 26.67° C | 40% | 1028.5 hPa | 0 mm | - | 57 W/m² | - |
| 1777856115 | 26.67° C | 39% | 1028.5 hPa | 0 mm | - | 64 W/m² | - |
| 1777855813 | 27.22° C | 39% | 1028.4 hPa | 0 mm | - | 64 W/m² | - |
| 1777855510 | 27.22° C | 39% | 1028.6 hPa | 0 mm | - | 235 W/m² | - |
| 1777855207 | 27.22° C | 39% | 1028.5 hPa | 0 mm | - | 192 W/m² | - |
| 1777854903 | 27.22° C | 39% | 1028.6 hPa | 0 mm | - | 60 W/m² | - |
| 1777854600 | 27.22° C | 37% | 1028.7 hPa | 0 mm | - | 106 W/m² | - |
| 1777854297 | 27.22° C | 38% | 1028.7 hPa | 0 mm | - | 50 W/m² | - |
| 1777853994 | 27.22° C | 37% | 1028.7 hPa | 0 mm | - | 91 W/m² | - |
| 1777853692 | 27.22° C | 38% | 1028.7 hPa | 0 mm | - | 71 W/m² | - |
| 1777853388 | 27.78° C | 39% | 1029 hPa | 0 mm | - | 56 W/m² | - |
| 1777853085 | 27.78° C | 38% | 1028.9 hPa | 0 mm | - | 366 W/m² | - |
| 1777852782 | 27.78° C | 38% | 1028.9 hPa | 0 mm | - | 378 W/m² | - |
| 1777852480 | 27.78° C | 38% | 1029 hPa | 0 mm | - | 388 W/m² | - |
| 1777852177 | 28.33° C | 38% | 1029 hPa | 0 mm | - | 403 W/m² | - |
| 1777851875 | 28.33° C | 39% | 1028.9 hPa | 0 mm | - | 416 W/m² | - |
| 1777851573 | 28.33° C | 38% | 1029 hPa | 0 mm | - | 426 W/m² | - |
| 1777851269 | 28.33° C | 39% | 1029.1 hPa | 0 mm | - | 439 W/m² | - |
| 1777850966 | 28.33° C | 39% | 1029 hPa | 0 mm | - | 450 W/m² | - |
| 1777850662 | 28.89° C | 37% | 1029.1 hPa | 0 mm | - | 461 W/m² | - |
| 1777850360 | 28.33° C | 38% | 1029.3 hPa | 0 mm | - | 471 W/m² | - |
| 1777850058 | 28.33° C | 38% | 1029.2 hPa | 0 mm | - | 482 W/m² | - |
| 1777849754 | 27.78° C | 37% | 1029.5 hPa | 0 mm | - | 493 W/m² | - |
| 1777849450 | 28.89° C | 35% | 1029.2 hPa | 0 mm | - | 504 W/m² | - |
| 1777849148 | 27.78° C | 39% | 1029.6 hPa | 0 mm | - | 511 W/m² | - |
* Rain latest hour (hover to see other rain measurements)
** Current wind speed in m/s (hover to see current wind gust speed)